Pagina principale
METAR-TAF:

METAR-TAF

Aeroporti :

La Chaux-de-Fonds, Svizzera

latitudine: 47-05-03N, longitudine: 006-47-37E, altezza: 1027 m

Osservazione

Il bollettino è stato emesso 35 minuti fa, alle 01:50 UTC
Vento 3 kt da direzioni variabili
Temperature 12°C
Umidità 100%
Pressione 1018 hPa
Visibilità 10 km o più
nessuna nube inferiore a 1500 m e nessun cumulonembo

METAR: LSGC 210150Z AUTO VRB03KT CAVOK 12/12 Q1018

Ora: 04:25 (02:25 UTC)

Previsione

Il bollettino è stato emesso 12 ore e 0 minuti fa, alle 14:25 UTC
Previsione valida dal 20 alle 15 UTC al 20 alle 24 UTC
Vento 7 kt da sud-ovest
Visibilità 10 km o più
Poco nuvoloso ad un'altezza di 4000 ft
Probabilità 30% :
Temporaneamente
dal 20 alle 16 UTC al 20 alle 21 UTC
Nuvoloso ad un'altezza di 4000 ft
rovesci di pioggia,

TAF: LSGC 201425Z 2015/2024 23007KT 9999 FEW040 PROB30 TEMPO 2016/2021 SHRA BKN040

Osservazioni e previsioni meteorologiche di più di 4000 aeroporti (messaggi METAR e TAF).

Le stazioni disponibili sono rappresentate dai dischi gialli e rossi sulla carta.

Puntare il mouse per vedere il nome della stazione.

Clicca sopra per visualizzare le osservazioni e previsioni meteorologiche.

Per cambiare la mappa : fare clic sui pulsanti verdi con una croce nera per ingrandire, il pulsante verde con un trattino per diminuire, o sulla freccia verde per le mappe adiacenti.


METAR-TAF: